Terminal Aerodrome Forecast
Issued by NWS

Home | Current Version | Previous Version | Text Only | Print | Product List | Glossary Off
Versions: 1 2 3 4 5 6 7 8 9 10 11 12 13 14 15 16 17

000
FTUS43 KICT 241720
TAFSLN
TAF
KSLN 241720Z 2418/2518 34009KT P6SM BKN150
     FM242000 34012KT P6SM VCSH BKN100
     FM250100 35010KT 6SM -SHRA OVC025
     FM251000 32009KT 6SM -SHRA OVC015
     FM251200 32008KT P6SM OVC015=

USA.gov is the U.S. government's official web portal to all federal, state and local government web resources and services.